createdAt,value
2017-05-08T00:00:17.462Z,1011.84
2017-05-08T00:00:58.004Z,1011.8
2017-05-08T00:01:38.542Z,1011.82
2017-05-08T00:02:19.086Z,1011.8
2017-05-08T00:02:59.635Z,1011.86
2017-05-08T00:03:40.185Z,1011.87
2017-05-08T00:04:20.736Z,1011.83
2017-05-08T00:05:01.287Z,1011.89
2017-05-08T00:05:41.835Z,1011.89
2017-05-08T00:06:22.378Z,1011.81
2017-05-08T00:07:02.918Z,1011.85
2017-05-08T00:07:43.467Z,1011.88
2017-05-08T00:08:24.012Z,1011.92
2017-05-08T00:09:04.540Z,1011.86
2017-05-08T00:09:45.089Z,1011.92
2017-05-08T00:10:25.635Z,1011.9
2017-05-08T00:11:06.174Z,1011.91
2017-05-08T00:11:46.714Z,1011.88
2017-05-08T00:12:27.258Z,1011.94
2017-05-08T00:13:07.800Z,1011.99
2017-05-08T00:13:48.352Z,1011.91
2017-05-08T00:14:28.899Z,1011.91
2017-05-08T00:15:09.451Z,1011.9
2017-05-08T00:15:49.996Z,1011.93
2017-05-08T00:16:30.551Z,1011.95
2017-05-08T00:17:11.101Z,1011.91
2017-05-08T00:17:51.651Z,1011.86
2017-05-08T00:18:32.205Z,1011.98
2017-05-08T00:19:12.754Z,1011.96
2017-05-08T00:19:53.310Z,1011.93
2017-05-08T00:20:33.857Z,1011.93
2017-05-08T00:21:14.429Z,1011.94
2017-05-08T00:21:54.958Z,1011.93
2017-05-08T00:22:35.509Z,1011.92
2017-05-08T00:23:16.059Z,1011.94
2017-05-08T00:23:56.606Z,1011.9
2017-05-08T00:24:37.156Z,1011.93
2017-05-08T00:25:17.710Z,1011.94
2017-05-08T00:25:58.254Z,1011.92
2017-05-08T00:26:38.800Z,1011.93
2017-05-08T00:27:19.341Z,1011.91
2017-05-08T00:27:59.886Z,1011.89
2017-05-08T00:28:40.435Z,1011.92
2017-05-08T00:29:20.974Z,1011.91
2017-05-08T00:30:01.536Z,1011.92
2017-05-08T00:30:42.064Z,1011.91
2017-05-08T00:31:22.600Z,1011.95
2017-05-08T00:32:03.148Z,1011.93
2017-05-08T00:32:43.688Z,1011.95
2017-05-08T00:33:24.218Z,1011.91
2017-05-08T00:34:04.757Z,1011.96
2017-05-08T00:34:45.306Z,1011.96
2017-05-08T00:35:25.849Z,1011.96
2017-05-08T00:36:06.395Z,1011.94
2017-05-08T00:36:46.941Z,1011.97
2017-05-08T00:37:27.455Z,1011.98
2017-05-08T00:38:07.993Z,1011.99
2017-05-08T00:38:48.543Z,1012.01
2017-05-08T00:39:29.088Z,1012.05
2017-05-08T00:40:09.633Z,1012.02
2017-05-08T00:40:50.180Z,1012.03
2017-05-08T00:41:30.729Z,1011.98
2017-05-08T00:42:11.276Z,1011.97
2017-05-08T00:42:51.829Z,1012.01
2017-05-08T00:43:32.387Z,1012.02
2017-05-08T00:44:12.933Z,1012.02
2017-05-08T00:44:53.483Z,1011.99
2017-05-08T00:45:34.042Z,1011.96
2017-05-08T00:46:14.589Z,1011.99
2017-05-08T00:46:55.154Z,1011.97
2017-05-08T00:47:35.688Z,1012
2017-05-08T00:48:16.240Z,1012.01
2017-05-08T00:48:56.786Z,1011.98
2017-05-08T00:49:37.341Z,1012.21
2017-05-08T00:50:17.888Z,1012
2017-05-08T00:50:58.443Z,1012.04
2017-05-08T00:51:38.991Z,1011.99
2017-05-08T00:52:19.545Z,1012.02
2017-05-08T00:53:00.091Z,1012.03
2017-05-08T00:53:40.639Z,1011.99
2017-05-08T00:54:21.197Z,1012
2017-05-08T00:55:01.741Z,1012.05
2017-05-08T00:55:42.286Z,1012.06
2017-05-08T00:56:22.828Z,1012.04
2017-05-08T00:57:03.374Z,1012.07
2017-05-08T00:57:43.918Z,1012.07
2017-05-08T00:58:24.452Z,1012.08
2017-05-08T00:59:04.994Z,1012.05
2017-05-08T00:59:45.539Z,1012.07
2017-05-08T01:00:26.094Z,1012.01
2017-05-08T01:01:06.634Z,1012.1
2017-05-08T01:01:47.184Z,1012.11
2017-05-08T01:02:27.730Z,1012.07
2017-05-08T01:03:08.273Z,1012.06
2017-05-08T01:03:48.839Z,1012.06
2017-05-08T01:04:29.378Z,1012.13
2017-05-08T01:05:09.930Z,1012.1
2017-05-08T01:05:50.463Z,1012.12
2017-05-08T01:06:31.010Z,1012.16
2017-05-08T01:07:11.561Z,1012.15
2017-05-08T01:07:52.105Z,1012.18
2017-05-08T01:08:32.661Z,1012.21
2017-05-08T01:09:13.202Z,1012.21
2017-05-08T01:09:53.743Z,1012.17
2017-05-08T01:10:34.288Z,1012.17
2017-05-08T01:11:14.836Z,1012.23
2017-05-08T01:11:55.385Z,1012.2
2017-05-08T01:12:35.924Z,1012.24
2017-05-08T01:13:16.461Z,1012.19
2017-05-08T01:13:57.000Z,1012.2
2017-05-08T01:14:37.547Z,1012.21
2017-05-08T01:15:18.086Z,1012.17
2017-05-08T01:15:58.629Z,1012.16
2017-05-08T01:16:39.174Z,1012.19
2017-05-08T01:17:19.724Z,1012.2
2017-05-08T01:18:00.274Z,1012.24
2017-05-08T01:18:40.821Z,1012.23
2017-05-08T01:19:21.373Z,1012.24
2017-05-08T01:20:01.922Z,1012.25
2017-05-08T01:20:42.459Z,1012.26
2017-05-08T01:21:23.001Z,1012.23
2017-05-08T01:22:03.550Z,1012.24
2017-05-08T01:22:44.103Z,1012.25
2017-05-08T01:23:24.652Z,1012.24
2017-05-08T01:24:05.201Z,1012.29
2017-05-08T01:24:45.750Z,1012.27
2017-05-08T01:25:26.291Z,1012.29
2017-05-08T01:26:06.841Z,1012.24
2017-05-08T01:26:47.376Z,1012.33
2017-05-08T01:27:27.921Z,1012.24
2017-05-08T01:28:08.462Z,1012.33
2017-05-08T01:28:49.010Z,1012.27
2017-05-08T01:29:29.556Z,1012.32
2017-05-08T01:30:10.102Z,1012.39
2017-05-08T01:30:50.653Z,1012.31
2017-05-08T01:31:31.185Z,1012.41
2017-05-08T01:32:11.741Z,1012.37
2017-05-08T01:32:52.288Z,1012.35
2017-05-08T01:33:32.840Z,1012.37
2017-05-08T01:34:13.386Z,1012.38
2017-05-08T01:34:53.941Z,1012.35
2017-05-08T01:35:34.489Z,1012.35
2017-05-08T01:36:15.042Z,1012.37
2017-05-08T01:36:55.594Z,1012.39
2017-05-08T01:37:36.143Z,1012.32
2017-05-08T01:38:16.692Z,1012.37
2017-05-08T01:38:57.236Z,1012.41
2017-05-08T01:39:37.776Z,1012.36
2017-05-08T01:40:18.342Z,1012.38
2017-05-08T01:40:58.898Z,1012.39
2017-05-08T01:41:39.449Z,1012.38
2017-05-08T01:42:20.001Z,1012.4
2017-05-08T01:43:00.552Z,1012.42
2017-05-08T01:43:41.111Z,1012.37
2017-05-08T01:44:21.656Z,1012.37
2017-05-08T01:45:02.204Z,1012.33
2017-05-08T01:45:42.758Z,1012.37
2017-05-08T01:46:23.307Z,1012.36
2017-05-08T01:47:03.857Z,1012.39
2017-05-08T01:47:44.407Z,1012.4
2017-05-08T01:48:31.912Z,1012.4
2017-05-08T01:49:12.454Z,1012.4
2017-05-08T01:49:52.973Z,1012.39
2017-05-08T01:50:33.517Z,1012.42
2017-05-08T01:51:14.055Z,1012.42
2017-05-08T01:51:54.587Z,1012.45
2017-05-08T01:52:35.126Z,1012.43
2017-05-08T01:53:15.662Z,1012.41
2017-05-08T01:53:56.203Z,1012.42
2017-05-08T01:54:36.737Z,1012.38
2017-05-08T01:55:17.297Z,1012.42
2017-05-08T01:55:57.806Z,1012.4
2017-05-08T01:56:38.341Z,1012.41
2017-05-08T01:57:18.875Z,1012.41
2017-05-08T01:57:59.414Z,1012.42
2017-05-08T01:58:39.951Z,1012.38
2017-05-08T01:59:20.487Z,1012.4
2017-05-08T02:00:01.024Z,1012.37
2017-05-08T02:00:41.557Z,1012.38
2017-05-08T02:01:22.095Z,1012.36
2017-05-08T02:02:02.631Z,1012.33
2017-05-08T02:02:43.166Z,1012.39
2017-05-08T02:03:23.703Z,1012.35
2017-05-08T02:04:04.237Z,1012.36
2017-05-08T02:04:44.769Z,1012.38
2017-05-08T02:05:25.308Z,1012.37
2017-05-08T02:06:05.850Z,1012.38
2017-05-08T02:06:46.378Z,1012.37
2017-05-08T02:07:26.914Z,1012.35
2017-05-08T02:08:07.447Z,1012.36
2017-05-08T02:08:47.978Z,1012.34
2017-05-08T02:09:28.513Z,1012.39
2017-05-08T02:10:09.050Z,1012.37
2017-05-08T02:10:49.580Z,1012.34
2017-05-08T02:11:30.119Z,1012.38
2017-05-08T02:12:10.657Z,1012.37
2017-05-08T02:12:51.200Z,1012.33
2017-05-08T02:13:31.737Z,1012.36
2017-05-08T02:14:12.283Z,1012.38
2017-05-08T02:14:52.809Z,1012.38
2017-05-08T02:15:33.346Z,1012.36
2017-05-08T02:16:13.884Z,1012.38
2017-05-08T02:16:54.423Z,1012.39
2017-05-08T02:17:34.963Z,1012.4
2017-05-08T02:18:15.508Z,1012.4
2017-05-08T02:18:56.030Z,1012.38
2017-05-08T02:19:36.559Z,1012.36
2017-05-08T02:20:17.095Z,1012.38
2017-05-08T02:20:57.628Z,1012.34
2017-05-08T02:21:38.164Z,1012.39
2017-05-08T02:22:18.696Z,1012.34
2017-05-08T02:22:59.231Z,1012.4
2017-05-08T02:23:39.762Z,1012.39
2017-05-08T02:24:20.300Z,1012.39
2017-05-08T02:25:00.841Z,1012.38
2017-05-08T02:25:41.379Z,1012.37
2017-05-08T02:26:21.923Z,1012.38
2017-05-08T02:27:02.461Z,1012.36
2017-05-08T02:27:42.987Z,1012.38
2017-05-08T02:28:23.525Z,1012.4
2017-05-08T02:29:04.065Z,1012.39
2017-05-08T02:29:44.598Z,1012.38
2017-05-08T02:30:25.144Z,1012.39
2017-05-08T02:31:05.681Z,1012.39
2017-05-08T02:31:46.216Z,1012.42
2017-05-08T02:32:26.745Z,1012.4
2017-05-08T02:33:07.277Z,1012.43
2017-05-08T02:33:47.812Z,1012.43
2017-05-08T02:34:28.350Z,1012.45
2017-05-08T02:35:08.884Z,1012.32
2017-05-08T02:35:49.428Z,1012.45
2017-05-08T02:36:29.953Z,1012.45
2017-05-08T02:37:10.485Z,1012.5
2017-05-08T02:37:51.021Z,1012.46
2017-05-08T02:38:31.555Z,1012.48
2017-05-08T02:39:12.088Z,1012.5
2017-05-08T02:39:52.624Z,1012.47
2017-05-08T02:40:33.149Z,1012.47
2017-05-08T02:41:13.683Z,1012.48
2017-05-08T02:41:54.217Z,1012.45
2017-05-08T02:42:34.751Z,1012.48
2017-05-08T02:43:15.288Z,1012.46
2017-05-08T02:43:55.825Z,1012.43
2017-05-08T02:44:36.358Z,1012.46
2017-05-08T02:45:16.893Z,1012.41
2017-05-08T02:45:57.427Z,1012.48
2017-05-08T02:46:37.963Z,1012.45
2017-05-08T02:47:18.498Z,1012.49
2017-05-08T02:47:59.040Z,1012.49
2017-05-08T02:48:39.573Z,1012.49
2017-05-08T02:49:20.129Z,1012.46
2017-05-08T02:50:00.663Z,1012.5
2017-05-08T02:50:41.199Z,1012.52
2017-05-08T02:51:21.731Z,1012.49
2017-05-08T02:52:02.265Z,1012.51
2017-05-08T02:52:42.801Z,1012.47
2017-05-08T02:53:23.342Z,1012.51
2017-05-08T02:54:03.877Z,1012.5
2017-05-08T02:54:44.405Z,1012.52
2017-05-08T02:55:24.935Z,1012.51
2017-05-08T02:56:05.479Z,1012.48
2017-05-08T02:56:46.015Z,1012.48
2017-05-08T02:57:26.553Z,1012.5
2017-05-08T02:58:07.087Z,1012.45
2017-05-08T02:58:47.622Z,1012.49
2017-05-08T02:59:28.159Z,1012.49
2017-05-08T03:00:08.702Z,1012.47
2017-05-08T03:00:49.239Z,1012.51
2017-05-08T03:01:29.769Z,1012.5
2017-05-08T03:02:10.311Z,1012.43
2017-05-08T03:02:50.849Z,1012.42
2017-05-08T03:03:31.374Z,1012.42
2017-05-08T03:04:11.896Z,1012.44
2017-05-08T03:04:52.432Z,1012.48
2017-05-08T03:05:32.972Z,1012.45
2017-05-08T03:06:13.509Z,1012.44
2017-05-08T03:06:54.045Z,1012.43
2017-05-08T03:07:34.579Z,1012.44
2017-05-08T03:08:15.112Z,1012.45
2017-05-08T03:08:55.646Z,1012.47
2017-05-08T03:09:36.182Z,1012.49
2017-05-08T03:10:16.717Z,1012.47
2017-05-08T03:10:57.259Z,1012.45
2017-05-08T03:11:37.792Z,1012.46
2017-05-08T03:12:18.319Z,1012.49
2017-05-08T03:12:58.852Z,1012.51
2017-05-08T03:13:39.387Z,1012.48
2017-05-08T03:14:19.923Z,1012.49
2017-05-08T03:15:00.457Z,1012.48
2017-05-08T03:15:40.985Z,1012.51
2017-05-08T03:16:21.514Z,1012.51
2017-05-08T03:17:02.050Z,1012.54
2017-05-08T03:17:42.581Z,1012.5
2017-05-08T03:18:23.117Z,1012.5
2017-05-08T03:19:03.660Z,1012.49
2017-05-08T03:19:44.199Z,1012.57
2017-05-08T03:20:24.724Z,1012.51
2017-05-08T03:21:05.264Z,1012.48
2017-05-08T03:21:45.793Z,1012.48
2017-05-08T03:22:26.335Z,1012.51
2017-05-08T03:23:06.875Z,1012.49
2017-05-08T03:23:47.412Z,1012.5
2017-05-08T03:24:27.951Z,1012.53
2017-05-08T03:25:08.486Z,1012.53
2017-05-08T03:25:49.021Z,1012.52
2017-05-08T03:26:29.546Z,1012.51
2017-05-08T03:27:10.089Z,1012.54
2017-05-08T03:27:50.624Z,1012.5
2017-05-08T03:28:31.159Z,1012.51
2017-05-08T03:29:11.695Z,1012.57
2017-05-08T03:29:52.223Z,1012.53
2017-05-08T03:30:32.753Z,1012.51
2017-05-08T03:31:13.293Z,1012.54
2017-05-08T03:31:53.828Z,1012.54
2017-05-08T03:32:34.363Z,1012.53
2017-05-08T03:33:14.891Z,1012.56
2017-05-08T03:33:55.429Z,1012.52
2017-05-08T03:34:35.965Z,1012.54
2017-05-08T03:35:16.495Z,1012.57
2017-05-08T03:35:57.031Z,1012.6
2017-05-08T03:36:37.567Z,1012.58
2017-05-08T03:37:18.105Z,1012.58
2017-05-08T03:37:58.629Z,1012.54
2017-05-08T03:38:39.170Z,1012.54
2017-05-08T03:39:19.726Z,1012.55
2017-05-08T03:40:00.250Z,1012.54
2017-05-08T03:40:40.786Z,1012.55
2017-05-08T03:41:21.327Z,1012.55
2017-05-08T03:42:01.868Z,1012.54
2017-05-08T03:42:42.405Z,1012.52
2017-05-08T03:43:22.940Z,1012.52
2017-05-08T03:44:03.471Z,1012.53
2017-05-08T03:44:44.010Z,1012.56
2017-05-08T03:45:24.545Z,1012.55
2017-05-08T03:46:05.082Z,1012.56
2017-05-08T03:46:45.620Z,1012.48
2017-05-08T03:47:26.153Z,1012.51
2017-05-08T03:48:06.689Z,1012.52
2017-05-08T03:48:47.225Z,1012.53
2017-05-08T03:49:27.757Z,1012.54
2017-05-08T03:50:08.293Z,1012.52
2017-05-08T03:50:48.841Z,1012.59
2017-05-08T03:51:29.377Z,1012.53
2017-05-08T03:52:09.902Z,1012.51
2017-05-08T03:52:50.429Z,1012.53
2017-05-08T03:53:30.969Z,1012.53
2017-05-08T03:54:11.503Z,1012.52
2017-05-08T03:54:52.038Z,1012.52
2017-05-08T03:55:32.568Z,1012.5
2017-05-08T03:56:13.102Z,1012.49
2017-05-08T03:56:54.173Z,1012.48
2017-05-08T03:57:34.709Z,1012.48
2017-05-08T03:58:15.246Z,1012.45
2017-05-08T03:58:55.776Z,1012.47
2017-05-08T03:59:36.308Z,1012.51
2017-05-08T04:00:16.848Z,1012.5
2017-05-08T04:00:57.373Z,1012.45
2017-05-08T04:01:37.916Z,1012.46
2017-05-08T04:02:18.511Z,1012.45
2017-05-08T04:02:59.016Z,1012.44
2017-05-08T04:03:39.551Z,1012.41
2017-05-08T04:04:20.088Z,1012.41
2017-05-08T04:05:00.630Z,1012.45
2017-05-08T04:05:41.168Z,1012.42
2017-05-08T04:06:21.712Z,1012.4
2017-05-08T04:07:02.247Z,1012.47
2017-05-08T04:07:42.774Z,1012.45
2017-05-08T04:08:23.306Z,1012.45
2017-05-08T04:09:03.844Z,1012.43
2017-05-08T04:09:44.377Z,1012.44
2017-05-08T04:10:24.913Z,1012.43
2017-05-08T04:11:05.450Z,1012.4
2017-05-08T04:11:45.978Z,1012.47
2017-05-08T04:12:26.514Z,1012.42
2017-05-08T04:13:07.050Z,1012.45
2017-05-08T04:13:47.601Z,1012.44
2017-05-08T04:14:28.139Z,1012.48
2017-05-08T04:15:08.674Z,1012.47
2017-05-08T04:15:49.210Z,1012.46
2017-05-08T04:16:29.748Z,1012.47
2017-05-08T04:17:10.282Z,1012.47
2017-05-08T04:17:50.869Z,1012.45
2017-05-08T04:18:31.375Z,1012.45
2017-05-08T04:19:11.914Z,1012.46
2017-05-08T04:19:52.441Z,1012.45
2017-05-08T04:20:32.978Z,1012.47
2017-05-08T04:21:13.515Z,1012.47
2017-05-08T04:21:54.041Z,1012.46
2017-05-08T04:22:34.576Z,1012.41
2017-05-08T04:23:15.115Z,1012.45
2017-05-08T04:23:55.646Z,1012.46
2017-05-08T04:24:36.378Z,1012.48
2017-05-08T04:25:16.916Z,1012.45
2017-05-08T04:25:57.449Z,1012.44
2017-05-08T04:26:38.003Z,1012.44
2017-05-08T04:27:18.514Z,1012.43
2017-05-08T04:27:59.052Z,1012.47
2017-05-08T04:28:39.591Z,1012.48
2017-05-08T04:29:20.133Z,1012.46
2017-05-08T04:30:00.676Z,1012.45
2017-05-08T04:30:41.197Z,1012.49
2017-05-08T04:31:21.775Z,1012.46
2017-05-08T04:32:02.262Z,1012.42
2017-05-08T04:32:42.800Z,1012.45
2017-05-08T04:33:23.342Z,1012.43
2017-05-08T04:34:03.863Z,1012.47
2017-05-08T04:34:44.397Z,1012.49
2017-05-08T04:35:24.931Z,1012.54
2017-05-08T04:36:05.467Z,1012.49
2017-05-08T04:36:46.001Z,1012.47
2017-05-08T04:37:26.537Z,1012.51
2017-05-08T04:38:07.080Z,1012.46
2017-05-08T04:38:47.611Z,1012.46
2017-05-08T04:39:28.139Z,1012.46
2017-05-08T04:40:08.796Z,1012.51
2017-05-08T04:40:49.321Z,1012.5
2017-05-08T04:41:29.851Z,1012.47
2017-05-08T04:42:10.387Z,1012.49
2017-05-08T04:42:50.908Z,1012.49
2017-05-08T04:43:31.442Z,1012.49
2017-05-08T04:44:11.975Z,1012.49
2017-05-08T04:44:52.511Z,1012.49
2017-05-08T04:45:33.052Z,1012.47
2017-05-08T04:46:13.586Z,1012.45
2017-05-08T04:46:54.105Z,1012.48
2017-05-08T04:47:34.649Z,1012.48
2017-05-08T04:48:15.174Z,1012.49
2017-05-08T04:48:55.711Z,1012.5
2017-05-08T04:49:36.250Z,1012.49
2017-05-08T04:50:16.790Z,1012.51
2017-05-08T04:50:57.322Z,1012.51
2017-05-08T04:51:37.857Z,1012.49
2017-05-08T04:52:18.395Z,1012.5
2017-05-08T04:52:58.935Z,1012.5
2017-05-08T04:53:39.475Z,1012.49
2017-05-08T04:54:20.014Z,1012.44
2017-05-08T04:55:00.554Z,1012.46
2017-05-08T04:55:41.082Z,1012.5
2017-05-08T04:56:21.619Z,1012.44
2017-05-08T04:57:02.155Z,1012.44
2017-05-08T04:57:42.696Z,1012.47
2017-05-08T04:58:23.230Z,1012.47
2017-05-08T04:59:03.768Z,1012.47
2017-05-08T04:59:44.306Z,1012.51
2017-05-08T05:00:24.823Z,1012.5
2017-05-08T05:01:05.360Z,1012.47
2017-05-08T05:01:45.901Z,1012.49
2017-05-08T05:02:26.434Z,1012.48
2017-05-08T05:03:06.959Z,1012.47
2017-05-08T05:03:47.474Z,1012.44
2017-05-08T05:04:28.005Z,1012.45
2017-05-08T05:05:08.542Z,1012.43
2017-05-08T05:05:49.084Z,1012.45
2017-05-08T05:06:29.644Z,1012.44
2017-05-08T05:07:10.196Z,1012.48
2017-05-08T05:07:50.737Z,1012.41
2017-05-08T05:08:31.273Z,1012.51
2017-05-08T05:09:11.806Z,1012.45
2017-05-08T05:09:52.334Z,1012.46
2017-05-08T05:10:32.861Z,1012.42
2017-05-08T05:11:13.424Z,1012.41
2017-05-08T05:11:53.939Z,1012.43
2017-05-08T05:12:34.496Z,1012.43
2017-05-08T05:13:15.041Z,1012.43
2017-05-08T05:13:55.592Z,1012.46
2017-05-08T05:14:36.131Z,1012.47
2017-05-08T05:15:16.670Z,1012.44
2017-05-08T05:15:57.210Z,1012.4
2017-05-08T05:16:37.747Z,1012.44
2017-05-08T05:17:18.281Z,1012.44
2017-05-08T05:17:58.815Z,1012.43
2017-05-08T05:18:39.345Z,1012.45
2017-05-08T05:19:19.883Z,1012.4
2017-05-08T05:20:00.415Z,1012.44
2017-05-08T05:20:40.988Z,1012.44
2017-05-08T05:21:21.517Z,1012.43
2017-05-08T05:22:02.045Z,1012.42
2017-05-08T05:22:42.579Z,1012.53
2017-05-08T05:23:23.099Z,1012.48
2017-05-08T05:24:03.637Z,1012.45
2017-05-08T05:24:44.171Z,1012.46
2017-05-08T05:25:24.708Z,1012.49
2017-05-08T05:26:05.244Z,1012.48
2017-05-08T05:26:45.774Z,1012.47
2017-05-08T05:27:26.308Z,1012.46
2017-05-08T05:28:06.846Z,1012.42
2017-05-08T05:28:47.381Z,1012.41
2017-05-08T05:29:27.922Z,1012.42
2017-05-08T05:30:08.447Z,1012.42
2017-05-08T05:30:49.109Z,1012.46
2017-05-08T05:31:29.606Z,1012.48
2017-05-08T05:32:10.146Z,1012.48
2017-05-08T05:32:50.690Z,1012.45
2017-05-08T05:33:31.228Z,1012.5
2017-05-08T05:34:11.812Z,1012.47
2017-05-08T05:34:52.348Z,1012.47
2017-05-08T05:35:32.889Z,1012.5
2017-05-08T05:36:13.431Z,1012.48
2017-05-08T05:36:53.966Z,1012.43
2017-05-08T05:37:34.502Z,1012.49
2017-05-08T05:38:15.038Z,1012.47
2017-05-08T05:38:55.571Z,1012.48
2017-05-08T05:39:36.154Z,1012.48
2017-05-08T05:40:16.689Z,1012.48
2017-05-08T05:40:57.224Z,1012.48
2017-05-08T05:41:37.768Z,1012.48
2017-05-08T05:42:18.308Z,1012.52
2017-05-08T05:42:58.847Z,1012.51
2017-05-08T05:43:39.389Z,1012.43
2017-05-08T05:44:19.922Z,1012.54
2017-05-08T05:45:00.455Z,1012.55
2017-05-08T05:45:41.191Z,1012.56
2017-05-08T05:46:21.876Z,1012.57
2017-05-08T05:47:02.418Z,1012.54
2017-05-08T05:47:42.944Z,1012.54
2017-05-08T05:48:23.479Z,1012.55
2017-05-08T05:49:04.011Z,1012.55
2017-05-08T05:49:44.552Z,1012.56
2017-05-08T05:50:25.078Z,1012.58
2017-05-08T05:51:05.605Z,1012.57
2017-05-08T05:51:46.141Z,1012.57
2017-05-08T05:52:26.712Z,1012.59
2017-05-08T05:53:07.221Z,1012.59
2017-05-08T05:53:47.763Z,1012.59
2017-05-08T05:54:28.291Z,1012.57
2017-05-08T05:55:08.828Z,1012.55
2017-05-08T05:55:49.365Z,1012.55
2017-05-08T05:56:29.890Z,1012.6
2017-05-08T05:57:10.425Z,1012.6
2017-05-08T05:57:50.963Z,1012.5
2017-05-08T05:58:31.507Z,1012.55
2017-05-08T05:59:12.042Z,1012.54
2017-05-08T05:59:52.580Z,1012.6
2017-05-08T06:00:33.115Z,1012.55
2017-05-08T06:01:13.644Z,1012.57
2017-05-08T06:01:54.182Z,1012.58
2017-05-08T06:02:34.722Z,1012.59
2017-05-08T06:03:15.260Z,1012.62
2017-05-08T06:03:55.788Z,1012.59
2017-05-08T06:04:36.327Z,1012.56
2017-05-08T06:05:16.855Z,1012.59
2017-05-08T06:05:57.397Z,1012.57
2017-05-08T06:06:37.932Z,1012.56
2017-05-08T06:07:18.477Z,1012.63
2017-05-08T06:07:59.035Z,1012.55
2017-05-08T06:08:39.569Z,1012.54
2017-05-08T06:09:20.095Z,1012.55
2017-05-08T06:10:00.624Z,1012.58
2017-05-08T06:10:41.156Z,1012.59
2017-05-08T06:11:21.693Z,1012.57
2017-05-08T06:12:02.277Z,1012.55
2017-05-08T06:12:42.823Z,1012.57
2017-05-08T06:13:23.354Z,1012.57
2017-05-08T06:14:03.927Z,1012.58
2017-05-08T06:14:44.434Z,1012.59
2017-05-08T06:15:24.972Z,1012.59
2017-05-08T06:16:05.505Z,1012.63
2017-05-08T06:16:46.031Z,1012.6
2017-05-08T06:17:26.565Z,1012.59
2017-05-08T06:18:07.100Z,1012.55
2017-05-08T06:18:47.636Z,1012.58
2017-05-08T06:19:28.175Z,1012.59
2017-05-08T06:20:08.714Z,1012.63
2017-05-08T06:20:49.247Z,1012.61
2017-05-08T06:21:29.782Z,1012.57
2017-05-08T06:22:10.317Z,1012.6
2017-05-08T06:22:50.854Z,1012.63
2017-05-08T06:23:31.389Z,1012.58
2017-05-08T06:24:11.929Z,1012.62
2017-05-08T06:24:52.467Z,1012.57
2017-05-08T06:25:33.000Z,1012.59
2017-05-08T06:26:13.534Z,1012.58
2017-05-08T06:26:54.077Z,1012.6
2017-05-08T06:27:34.616Z,1012.61
2017-05-08T06:28:15.149Z,1012.56
2017-05-08T06:28:55.695Z,1012.58
2017-05-08T06:29:36.231Z,1012.56
2017-05-08T06:30:16.761Z,1012.59
2017-05-08T06:30:57.302Z,1012.51
2017-05-08T06:31:37.839Z,1012.58
2017-05-08T06:32:18.379Z,1012.57
2017-05-08T06:32:58.922Z,1012.56
2017-05-08T06:33:39.448Z,1012.57
2017-05-08T06:34:19.990Z,1012.59
2017-05-08T06:35:00.530Z,1012.57
2017-05-08T06:35:41.062Z,1012.6
2017-05-08T06:36:21.595Z,1012.58
2017-05-08T06:37:02.142Z,1012.58
2017-05-08T06:37:42.679Z,1012.61
2017-05-08T06:38:23.213Z,1012.57
2017-05-08T06:39:03.747Z,1012.56
2017-05-08T06:39:44.288Z,1012.58
2017-05-08T06:40:24.815Z,1012.54
2017-05-08T06:41:05.346Z,1012.57
2017-05-08T06:41:45.883Z,1012.55
2017-05-08T06:42:26.431Z,1012.6
2017-05-08T06:43:06.968Z,1012.58
2017-05-08T06:43:47.505Z,1012.61
2017-05-08T06:44:28.041Z,1012.6
2017-05-08T06:45:08.562Z,1012.59
2017-05-08T06:45:49.104Z,1012.57
2017-05-08T06:46:29.631Z,1012.61
2017-05-08T06:47:10.169Z,1012.63
2017-05-08T06:47:50.702Z,1012.59
2017-05-08T06:48:31.236Z,1012.63
2017-05-08T06:49:11.771Z,1012.62
2017-05-08T06:49:52.307Z,1012.6
2017-05-08T06:50:32.853Z,1012.68
2017-05-08T06:51:13.386Z,1012.63
2017-05-08T06:51:53.949Z,1012.65
2017-05-08T06:52:34.464Z,1012.64
2017-05-08T06:53:14.997Z,1012.64
2017-05-08T06:53:55.543Z,1012.63
2017-05-08T06:54:36.079Z,1012.56
2017-05-08T06:55:16.621Z,1012.58
2017-05-08T06:55:57.158Z,1012.55
2017-05-08T06:56:37.693Z,1012.54
2017-05-08T06:57:18.230Z,1012.57
2017-05-08T06:57:58.767Z,1012.56
2017-05-08T06:58:39.308Z,1012.55
2017-05-08T06:59:19.833Z,1012.57
2017-05-08T07:00:00.361Z,1012.58
2017-05-08T07:00:40.900Z,1012.56
2017-05-08T07:01:21.447Z,1012.59
2017-05-08T07:02:01.985Z,1012.63
2017-05-08T07:02:42.522Z,1012.62
2017-05-08T07:03:23.045Z,1012.59
2017-05-08T07:04:03.593Z,1012.62
2017-05-08T07:04:44.124Z,1012.64
2017-05-08T07:05:24.665Z,1012.64
2017-05-08T07:06:05.201Z,1012.63
2017-05-08T07:06:45.743Z,1012.6
2017-05-08T07:07:26.268Z,1012.66
2017-05-08T07:08:06.810Z,1012.68
2017-05-08T07:08:47.336Z,1012.65
2017-05-08T07:09:27.878Z,1012.63
2017-05-08T07:10:08.420Z,1012.65
2017-05-08T07:10:48.953Z,1012.63
2017-05-08T07:11:29.486Z,1012.64
2017-05-08T07:12:10.029Z,1012.64
2017-05-08T07:12:50.590Z,1012.64
2017-05-08T07:13:31.136Z,1012.68
2017-05-08T07:14:11.673Z,1012.65
2017-05-08T07:14:52.201Z,1012.64
2017-05-08T07:15:32.737Z,1012.67
2017-05-08T07:16:13.274Z,1012.68
2017-05-08T07:16:53.813Z,1012.67
2017-05-08T07:17:34.355Z,1012.73
2017-05-08T07:18:14.892Z,1012.72
2017-05-08T07:18:55.429Z,1012.73
2017-05-08T07:19:35.978Z,1012.72
2017-05-08T07:20:16.513Z,1012.7
2017-05-08T07:20:57.049Z,1012.72
2017-05-08T07:21:37.583Z,1012.71
2017-05-08T07:22:18.120Z,1012.71
2017-05-08T07:22:58.669Z,1012.71
2017-05-08T07:23:39.215Z,1012.71
2017-05-08T07:24:19.750Z,1012.7
2017-05-08T07:25:00.292Z,1012.67
2017-05-08T07:25:40.828Z,1012.69
2017-05-08T07:26:21.358Z,1012.65
2017-05-08T07:27:01.897Z,1012.69
2017-05-08T07:27:42.439Z,1012.68
2017-05-08T07:28:22.970Z,1012.68
2017-05-08T07:29:03.496Z,1012.7
2017-05-08T07:29:44.028Z,1012.65
2017-05-08T07:30:24.562Z,1012.68
2017-05-08T07:31:05.093Z,1012.7
2017-05-08T07:31:45.630Z,1012.66
2017-05-08T07:32:26.169Z,1012.68
2017-05-08T07:33:06.707Z,1012.67
2017-05-08T07:33:47.248Z,1012.69
2017-05-08T07:34:27.789Z,1012.64
2017-05-08T07:35:08.323Z,1012.72
2017-05-08T07:35:48.858Z,1012.7
2017-05-08T07:36:29.399Z,1012.69
2017-05-08T07:37:09.925Z,1012.72
2017-05-08T07:37:50.462Z,1012.66
2017-05-08T07:38:31.013Z,1012.73
2017-05-08T07:39:11.553Z,1012.71
2017-05-08T07:39:52.096Z,1012.69
2017-05-08T07:40:32.631Z,1012.74
2017-05-08T07:41:13.167Z,1012.8
2017-05-08T07:41:53.705Z,1012.75
2017-05-08T07:42:34.240Z,1012.72
2017-05-08T07:43:14.779Z,1012.76
2017-05-08T07:43:55.353Z,1012.79
2017-05-08T07:44:35.858Z,1012.8
2017-05-08T07:45:16.408Z,1012.78
2017-05-08T07:45:56.924Z,1012.81
2017-05-08T07:46:37.461Z,1012.81
2017-05-08T07:47:18.003Z,1012.79
2017-05-08T07:47:58.533Z,1012.82
2017-05-08T07:48:39.084Z,1012.81
2017-05-08T07:49:19.621Z,1012.83
2017-05-08T07:50:00.163Z,1012.86
2017-05-08T07:50:40.701Z,1012.85
2017-05-08T07:51:21.227Z,1012.86
2017-05-08T07:52:01.764Z,1012.9
2017-05-08T07:52:42.297Z,1012.9
2017-05-08T07:53:22.836Z,1012.93
2017-05-08T07:54:03.381Z,1012.95
2017-05-08T07:54:43.916Z,1012.92
2017-05-08T07:55:24.468Z,1012.92
2017-05-08T07:56:05.007Z,1012.98
2017-05-08T07:56:45.543Z,1012.94
2017-05-08T07:57:26.083Z,1012.96
2017-05-08T07:58:06.622Z,1012.97
2017-05-08T07:58:47.150Z,1012.94
2017-05-08T07:59:27.693Z,1012.94
2017-05-08T08:00:08.232Z,1012.93
2017-05-08T08:00:48.772Z,1012.95
2017-05-08T08:01:29.312Z,1012.96
2017-05-08T08:02:09.849Z,1012.98
2017-05-08T08:02:50.382Z,1012.98
2017-05-08T08:03:30.919Z,1012.98
2017-05-08T08:04:11.454Z,1012.99
2017-05-08T08:04:51.997Z,1012.99
2017-05-08T08:05:32.551Z,1013.01
2017-05-08T08:06:13.086Z,1012.99
2017-05-08T08:06:53.627Z,1013
2017-05-08T08:07:34.162Z,1013
2017-05-08T08:08:14.706Z,1012.97
2017-05-08T08:08:55.224Z,1012.98
2017-05-08T08:09:35.764Z,1012.98
2017-05-08T08:10:16.304Z,1012.96
2017-05-08T08:10:56.841Z,1012.99
2017-05-08T08:11:37.379Z,1013.02
2017-05-08T08:12:17.916Z,1013.03